sensor_id;sensor_type;location;lat;lon;timestamp;P1;durP1;ratioP1;P2;durP2;ratioP2
489;SDS011;231;48.120;11.576;2022-12-05T00:02:21;14.57;;;13.50;;
489;SDS011;231;48.120;11.576;2022-12-05T00:04:48;16.37;;;11.67;;
489;SDS011;231;48.120;11.576;2022-12-05T00:07:14;12.43;;;11.07;;
489;SDS011;231;48.120;11.576;2022-12-05T00:09:41;17.33;;;12.67;;
489;SDS011;231;48.120;11.576;2022-12-05T00:12:08;16.00;;;12.17;;
489;SDS011;231;48.120;11.576;2022-12-05T00:14:37;18.90;;;13.23;;
489;SDS011;231;48.120;11.576;2022-12-05T00:17:04;14.40;;;12.00;;
489;SDS011;231;48.120;11.576;2022-12-05T00:19:30;18.33;;;14.33;;
489;SDS011;231;48.120;11.576;2022-12-05T00:21:57;16.90;;;12.20;;
489;SDS011;231;48.120;11.576;2022-12-05T00:24:24;15.63;;;11.63;;
489;SDS011;231;48.120;11.576;2022-12-05T00:26:51;19.00;;;13.63;;
489;SDS011;231;48.120;11.576;2022-12-05T00:29:18;13.33;;;12.33;;
489;SDS011;231;48.120;11.576;2022-12-05T00:31:46;14.97;;;12.47;;
489;SDS011;231;48.120;11.576;2022-12-05T00:34:13;16.27;;;12.07;;
489;SDS011;231;48.120;11.576;2022-12-05T00:36:40;14.47;;;12.63;;
489;SDS011;231;48.120;11.576;2022-12-05T00:39:09;15.77;;;13.63;;
489;SDS011;231;48.120;11.576;2022-12-05T00:41:39;16.67;;;12.73;;
489;SDS011;231;48.120;11.576;2022-12-05T00:44:07;13.57;;;10.90;;
489;SDS011;231;48.120;11.576;2022-12-05T00:46:35;14.87;;;13.60;;
489;SDS011;231;48.120;11.576;2022-12-05T00:49:05;14.87;;;13.17;;
489;SDS011;231;48.120;11.576;2022-12-05T00:51:33;15.93;;;13.20;;
489;SDS011;231;48.120;11.576;2022-12-05T00:54:02;15.00;;;12.00;;
489;SDS011;231;48.120;11.576;2022-12-05T00:56:31;18.20;;;13.90;;
489;SDS011;231;48.120;11.576;2022-12-05T00:58:58;13.67;;;12.97;;
489;SDS011;231;48.120;11.576;2022-12-05T01:01:27;16.77;;;11.90;;
489;SDS011;231;48.120;11.576;2022-12-05T01:04:05;13.77;;;11.67;;
489;SDS011;231;48.120;11.576;2022-12-05T01:06:35;20.50;;;14.50;;
489;SDS011;231;48.120;11.576;2022-12-05T01:09:03;16.23;;;13.53;;
489;SDS011;231;48.120;11.576;2022-12-05T01:11:30;15.27;;;12.50;;
489;SDS011;231;48.120;11.576;2022-12-05T01:13:57;17.40;;;12.27;;
489;SDS011;231;48.120;11.576;2022-12-05T01:16:26;16.10;;;12.67;;
489;SDS011;231;48.120;11.576;2022-12-05T01:18:55;18.23;;;13.60;;
489;SDS011;231;48.120;11.576;2022-12-05T01:21:32;18.87;;;13.50;;
489;SDS011;231;48.120;11.576;2022-12-05T01:23:59;14.73;;;12.37;;
489;SDS011;231;48.120;11.576;2022-12-05T01:26:26;15.63;;;11.90;;
489;SDS011;231;48.120;11.576;2022-12-05T01:28:54;18.13;;;13.30;;
489;SDS011;231;48.120;11.576;2022-12-05T01:31:21;17.40;;;13.43;;
489;SDS011;231;48.120;11.576;2022-12-05T01:33:51;13.93;;;11.73;;
489;SDS011;231;48.120;11.576;2022-12-05T01:36:20;15.60;;;13.17;;
489;SDS011;231;48.120;11.576;2022-12-05T01:38:49;16.43;;;13.57;;
489;SDS011;231;48.120;11.576;2022-12-05T01:41:25;16.10;;;13.80;;
489;SDS011;231;48.120;11.576;2022-12-05T01:43:54;21.33;;;14.17;;
489;SDS011;231;48.120;11.576;2022-12-05T01:46:22;20.27;;;15.07;;
489;SDS011;231;48.120;11.576;2022-12-05T01:48:50;23.73;;;15.70;;
489;SDS011;231;48.120;11.576;2022-12-05T01:51:20;17.70;;;14.20;;
489;SDS011;231;48.120;11.576;2022-12-05T01:53:49;17.27;;;13.33;;
489;SDS011;231;48.120;11.576;2022-12-05T01:56:17;15.23;;;12.20;;
489;SDS011;231;48.120;11.576;2022-12-05T01:58:45;21.57;;;13.87;;
489;SDS011;231;48.120;11.576;2022-12-05T02:01:13;16.47;;;12.27;;
489;SDS011;231;48.120;11.576;2022-12-05T02:03:42;21.10;;;16.03;;
489;SDS011;231;48.120;11.576;2022-12-05T02:06:11;19.80;;;15.00;;
489;SDS011;231;48.120;11.576;2022-12-05T02:08:38;17.27;;;16.13;;
489;SDS011;231;48.120;11.576;2022-12-05T02:11:08;18.00;;;14.47;;
489;SDS011;231;48.120;11.576;2022-12-05T02:14:00;16.33;;;13.87;;
489;SDS011;231;48.120;11.576;2022-12-05T02:16:41;17.80;;;14.73;;
489;SDS011;231;48.120;11.576;2022-12-05T02:19:23;18.90;;;15.53;;
489;SDS011;231;48.120;11.576;2022-12-05T02:22:21;17.43;;;13.60;;
489;SDS011;231;48.120;11.576;2022-12-05T02:25:14;17.70;;;14.37;;
489;SDS011;231;48.120;11.576;2022-12-05T02:28:08;21.17;;;15.10;;
489;SDS011;231;48.120;11.576;2022-12-05T02:30:58;19.47;;;14.50;;
489;SDS011;231;48.120;11.576;2022-12-05T02:33:33;21.60;;;14.63;;
489;SDS011;231;48.120;11.576;2022-12-05T02:36:06;21.37;;;15.73;;
489;SDS011;231;48.120;11.576;2022-12-05T02:38:38;17.87;;;12.87;;
489;SDS011;231;48.120;11.576;2022-12-05T02:41:20;20.43;;;15.30;;
489;SDS011;231;48.120;11.576;2022-12-05T02:43:51;22.17;;;15.07;;
489;SDS011;231;48.120;11.576;2022-12-05T02:46:24;18.97;;;14.37;;
489;SDS011;231;48.120;11.576;2022-12-05T02:49:03;18.30;;;15.73;;
489;SDS011;231;48.120;11.576;2022-12-05T02:51:34;19.40;;;14.80;;
489;SDS011;231;48.120;11.576;2022-12-05T02:54:08;23.67;;;15.63;;
489;SDS011;231;48.120;11.576;2022-12-05T02:56:38;21.13;;;14.37;;
489;SDS011;231;48.120;11.576;2022-12-05T02:59:08;18.10;;;14.60;;
489;SDS011;231;48.120;11.576;2022-12-05T03:01:37;15.03;;;13.70;;
489;SDS011;231;48.120;11.576;2022-12-05T03:04:04;19.30;;;13.80;;
489;SDS011;231;48.120;11.576;2022-12-05T03:06:33;19.47;;;15.50;;
489;SDS011;231;48.120;11.576;2022-12-05T03:09:03;21.57;;;14.20;;
489;SDS011;231;48.120;11.576;2022-12-05T03:11:33;19.77;;;13.43;;
489;SDS011;231;48.120;11.576;2022-12-05T03:14:09;18.40;;;13.80;;
489;SDS011;231;48.120;11.576;2022-12-05T03:16:40;17.00;;;12.80;;
489;SDS011;231;48.120;11.576;2022-12-05T03:19:14;20.97;;;14.37;;
489;SDS011;231;48.120;11.576;2022-12-05T03:21:45;21.17;;;15.47;;
489;SDS011;231;48.120;11.576;2022-12-05T03:24:17;24.23;;;15.87;;
489;SDS011;231;48.120;11.576;2022-12-05T03:26:46;18.83;;;12.60;;
489;SDS011;231;48.120;11.576;2022-12-05T03:29:23;19.60;;;14.50;;
489;SDS011;231;48.120;11.576;2022-12-05T03:31:59;15.43;;;12.63;;
489;SDS011;231;48.120;11.576;2022-12-05T03:34:36;20.10;;;14.60;;
489;SDS011;231;48.120;11.576;2022-12-05T03:37:12;15.63;;;12.50;;
489;SDS011;231;48.120;11.576;2022-12-05T03:39:46;17.17;;;13.60;;
489;SDS011;231;48.120;11.576;2022-12-05T03:42:28;18.73;;;14.33;;
489;SDS011;231;48.120;11.576;2022-12-05T03:44:59;17.70;;;13.33;;
489;SDS011;231;48.120;11.576;2022-12-05T03:47:32;18.10;;;14.37;;
489;SDS011;231;48.120;11.576;2022-12-05T03:50:09;20.80;;;13.00;;
489;SDS011;231;48.120;11.576;2022-12-05T03:52:44;16.63;;;14.40;;
489;SDS011;231;48.120;11.576;2022-12-05T03:55:14;17.80;;;13.30;;
489;SDS011;231;48.120;11.576;2022-12-05T03:57:43;18.33;;;13.70;;
489;SDS011;231;48.120;11.576;2022-12-05T04:00:17;18.07;;;13.60;;
489;SDS011;231;48.120;11.576;2022-12-05T04:02:49;15.90;;;12.40;;
489;SDS011;231;48.120;11.576;2022-12-05T04:05:21;15.10;;;11.87;;
489;SDS011;231;48.120;11.576;2022-12-05T04:07:53;17.60;;;13.90;;
489;SDS011;231;48.120;11.576;2022-12-05T04:10:25;20.67;;;13.80;;
489;SDS011;231;48.120;11.576;2022-12-05T04:12:55;20.43;;;14.47;;
489;SDS011;231;48.120;11.576;2022-12-05T04:15:42;16.90;;;14.17;;
489;SDS011;231;48.120;11.576;2022-12-05T04:18:32;18.50;;;14.20;;
489;SDS011;231;48.120;11.576;2022-12-05T04:21:02;16.90;;;13.93;;
489;SDS011;231;48.120;11.576;2022-12-05T04:23:48;17.90;;;13.10;;
489;SDS011;231;48.120;11.576;2022-12-05T04:26:37;14.57;;;12.67;;
489;SDS011;231;48.120;11.576;2022-12-05T04:29:10;14.60;;;13.60;;
489;SDS011;231;48.120;11.576;2022-12-05T04:31:43;19.03;;;13.67;;
489;SDS011;231;48.120;11.576;2022-12-05T04:34:17;16.33;;;13.40;;
489;SDS011;231;48.120;11.576;2022-12-05T04:36:48;16.07;;;12.20;;
489;SDS011;231;48.120;11.576;2022-12-05T04:39:20;17.33;;;13.20;;
489;SDS011;231;48.120;11.576;2022-12-05T04:41:53;15.87;;;13.20;;
489;SDS011;231;48.120;11.576;2022-12-05T04:44:24;16.13;;;12.43;;
489;SDS011;231;48.120;11.576;2022-12-05T04:46:55;16.37;;;13.40;;
489;SDS011;231;48.120;11.576;2022-12-05T04:49:26;17.50;;;14.10;;
489;SDS011;231;48.120;11.576;2022-12-05T04:51:56;13.30;;;12.13;;
489;SDS011;231;48.120;11.576;2022-12-05T04:54:27;16.87;;;13.80;;
489;SDS011;231;48.120;11.576;2022-12-05T04:57:01;14.43;;;12.60;;
489;SDS011;231;48.120;11.576;2022-12-05T04:59:32;16.60;;;13.50;;
489;SDS011;231;48.120;11.576;2022-12-05T05:02:02;15.37;;;12.93;;
489;SDS011;231;48.120;11.576;2022-12-05T05:04:35;16.13;;;13.17;;
489;SDS011;231;48.120;11.576;2022-12-05T05:07:05;19.23;;;12.63;;
489;SDS011;231;48.120;11.576;2022-12-05T05:09:33;14.73;;;12.30;;
489;SDS011;231;48.120;11.576;2022-12-05T05:12:00;17.80;;;14.70;;
489;SDS011;231;48.120;11.576;2022-12-05T05:14:27;15.53;;;12.37;;
489;SDS011;231;48.120;11.576;2022-12-05T05:16:55;15.10;;;12.77;;
489;SDS011;231;48.120;11.576;2022-12-05T05:19:22;23.20;;;14.70;;
489;SDS011;231;48.120;11.576;2022-12-05T05:21:51;15.90;;;13.37;;
489;SDS011;231;48.120;11.576;2022-12-05T05:24:18;17.70;;;14.57;;
489;SDS011;231;48.120;11.576;2022-12-05T05:26:45;17.00;;;14.07;;
489;SDS011;231;48.120;11.576;2022-12-05T05:29:13;15.97;;;14.20;;
489;SDS011;231;48.120;11.576;2022-12-05T05:31:43;19.00;;;14.50;;
489;SDS011;231;48.120;11.576;2022-12-05T05:34:11;19.03;;;15.73;;
489;SDS011;231;48.120;11.576;2022-12-05T05:36:51;20.03;;;14.30;;
489;SDS011;231;48.120;11.576;2022-12-05T05:39:18;19.47;;;16.07;;
489;SDS011;231;48.120;11.576;2022-12-05T05:41:45;17.20;;;14.07;;
489;SDS011;231;48.120;11.576;2022-12-05T05:44:12;18.07;;;13.90;;
489;SDS011;231;48.120;11.576;2022-12-05T05:46:38;15.93;;;12.90;;
489;SDS011;231;48.120;11.576;2022-12-05T05:49:05;20.80;;;14.97;;
489;SDS011;231;48.120;11.576;2022-12-05T05:51:32;18.27;;;14.00;;
489;SDS011;231;48.120;11.576;2022-12-05T05:54:01;17.40;;;14.10;;
489;SDS011;231;48.120;11.576;2022-12-05T05:56:28;18.10;;;14.90;;
489;SDS011;231;48.120;11.576;2022-12-05T05:58:55;20.20;;;14.00;;
489;SDS011;231;48.120;11.576;2022-12-05T06:01:23;17.97;;;15.20;;
489;SDS011;231;48.120;11.576;2022-12-05T06:03:51;17.57;;;14.67;;
489;SDS011;231;48.120;11.576;2022-12-05T06:06:18;19.50;;;14.23;;
489;SDS011;231;48.120;11.576;2022-12-05T06:08:45;22.37;;;15.97;;
489;SDS011;231;48.120;11.576;2022-12-05T06:11:14;17.30;;;15.00;;
489;SDS011;231;48.120;11.576;2022-12-05T06:13:42;20.27;;;14.53;;
489;SDS011;231;48.120;11.576;2022-12-05T06:16:11;21.73;;;15.70;;
489;SDS011;231;48.120;11.576;2022-12-05T06:18:40;17.93;;;15.17;;
489;SDS011;231;48.120;11.576;2022-12-05T06:21:08;18.80;;;14.93;;
489;SDS011;231;48.120;11.576;2022-12-05T06:23:37;19.80;;;15.43;;
489;SDS011;231;48.120;11.576;2022-12-05T06:26:06;19.67;;;14.37;;
489;SDS011;231;48.120;11.576;2022-12-05T06:28:38;17.20;;;14.37;;
489;SDS011;231;48.120;11.576;2022-12-05T06:31:06;17.73;;;14.30;;
489;SDS011;231;48.120;11.576;2022-12-05T06:33:34;17.60;;;14.50;;
489;SDS011;231;48.120;11.576;2022-12-05T06:36:02;19.57;;;14.43;;
489;SDS011;231;48.120;11.576;2022-12-05T06:38:30;15.70;;;14.03;;
489;SDS011;231;48.120;11.576;2022-12-05T06:40:58;18.13;;;14.10;;
489;SDS011;231;48.120;11.576;2022-12-05T06:43:25;20.33;;;15.40;;
489;SDS011;231;48.120;11.576;2022-12-05T06:45:53;20.10;;;16.13;;
489;SDS011;231;48.120;11.576;2022-12-05T06:48:21;16.47;;;14.10;;
489;SDS011;231;48.120;11.576;2022-12-05T06:50:49;16.17;;;13.37;;
489;SDS011;231;48.120;11.576;2022-12-05T06:53:16;16.53;;;14.17;;
489;SDS011;231;48.120;11.576;2022-12-05T06:55:53;20.90;;;16.73;;
489;SDS011;231;48.120;11.576;2022-12-05T06:58:21;21.60;;;17.73;;
489;SDS011;231;48.120;11.576;2022-12-05T07:00:48;17.70;;;14.60;;
489;SDS011;231;48.120;11.576;2022-12-05T07:03:34;17.40;;;13.90;;
489;SDS011;231;48.120;11.576;2022-12-05T07:06:02;16.77;;;13.67;;
489;SDS011;231;48.120;11.576;2022-12-05T07:08:30;14.57;;;12.37;;
489;SDS011;231;48.120;11.576;2022-12-05T07:10:58;18.00;;;14.30;;
489;SDS011;231;48.120;11.576;2022-12-05T07:13:25;16.73;;;14.93;;
489;SDS011;231;48.120;11.576;2022-12-05T07:15:52;16.30;;;13.90;;
489;SDS011;231;48.120;11.576;2022-12-05T07:18:18;15.90;;;13.17;;
489;SDS011;231;48.120;11.576;2022-12-05T07:20:54;16.40;;;14.50;;
489;SDS011;231;48.120;11.576;2022-12-05T07:23:28;14.60;;;13.67;;
489;SDS011;231;48.120;11.576;2022-12-05T07:25:55;15.13;;;13.57;;
489;SDS011;231;48.120;11.576;2022-12-05T07:28:23;18.60;;;16.13;;
489;SDS011;231;48.120;11.576;2022-12-05T07:31:03;19.40;;;14.27;;
489;SDS011;231;48.120;11.576;2022-12-05T07:33:32;14.67;;;12.67;;
489;SDS011;231;48.120;11.576;2022-12-05T07:36:00;16.10;;;14.10;;
489;SDS011;231;48.120;11.576;2022-12-05T07:38:28;17.60;;;13.40;;
489;SDS011;231;48.120;11.576;2022-12-05T07:40:55;17.40;;;13.60;;
489;SDS011;231;48.120;11.576;2022-12-05T07:43:22;16.40;;;14.80;;
489;SDS011;231;48.120;11.576;2022-12-05T07:45:50;14.40;;;13.70;;
489;SDS011;231;48.120;11.576;2022-12-05T07:48:16;17.07;;;13.70;;
489;SDS011;231;48.120;11.576;2022-12-05T07:50:43;16.33;;;15.03;;
489;SDS011;231;48.120;11.576;2022-12-05T07:53:12;18.00;;;17.10;;
489;SDS011;231;48.120;11.576;2022-12-05T07:55:38;19.63;;;16.73;;
489;SDS011;231;48.120;11.576;2022-12-05T07:58:05;16.50;;;14.60;;
489;SDS011;231;48.120;11.576;2022-12-05T08:00:32;15.93;;;14.67;;
489;SDS011;231;48.120;11.576;2022-12-05T08:03:00;17.93;;;14.23;;
489;SDS011;231;48.120;11.576;2022-12-05T08:05:28;17.80;;;15.30;;
489;SDS011;231;48.120;11.576;2022-12-05T08:08:02;15.13;;;12.27;;
489;SDS011;231;48.120;11.576;2022-12-05T08:10:38;14.27;;;13.13;;
489;SDS011;231;48.120;11.576;2022-12-05T08:13:05;14.47;;;13.50;;
489;SDS011;231;48.120;11.576;2022-12-05T08:15:33;17.40;;;15.83;;
489;SDS011;231;48.120;11.576;2022-12-05T08:18:00;14.10;;;13.40;;
489;SDS011;231;48.120;11.576;2022-12-05T08:20:27;20.20;;;16.00;;
489;SDS011;231;48.120;11.576;2022-12-05T08:23:01;19.97;;;15.43;;
489;SDS011;231;48.120;11.576;2022-12-05T08:25:35;16.47;;;15.20;;
489;SDS011;231;48.120;11.576;2022-12-05T08:28:04;13.33;;;12.60;;
489;SDS011;231;48.120;11.576;2022-12-05T08:30:32;15.50;;;13.30;;
489;SDS011;231;48.120;11.576;2022-12-05T08:33:06;19.80;;;13.60;;
489;SDS011;231;48.120;11.576;2022-12-05T08:35:35;17.70;;;15.07;;
489;SDS011;231;48.120;11.576;2022-12-05T08:38:10;15.83;;;13.27;;
489;SDS011;231;48.120;11.576;2022-12-05T08:40:37;18.33;;;13.40;;
489;SDS011;231;48.120;11.576;2022-12-05T08:43:05;14.60;;;12.77;;
489;SDS011;231;48.120;11.576;2022-12-05T08:45:33;15.30;;;13.30;;
489;SDS011;231;48.120;11.576;2022-12-05T08:48:00;14.60;;;13.03;;
489;SDS011;231;48.120;11.576;2022-12-05T08:50:27;18.07;;;15.33;;
489;SDS011;231;48.120;11.576;2022-12-05T08:52:54;14.63;;;12.57;;
489;SDS011;231;48.120;11.576;2022-12-05T08:55:21;15.47;;;13.03;;
489;SDS011;231;48.120;11.576;2022-12-05T08:57:48;13.33;;;11.47;;
489;SDS011;231;48.120;11.576;2022-12-05T09:00:16;19.00;;;16.63;;
489;SDS011;231;48.120;11.576;2022-12-05T09:02:44;14.00;;;13.27;;
489;SDS011;231;48.120;11.576;2022-12-05T09:05:16;17.73;;;15.10;;
489;SDS011;231;48.120;11.576;2022-12-05T09:07:43;15.07;;;13.67;;
489;SDS011;231;48.120;11.576;2022-12-05T09:10:10;12.43;;;11.63;;
489;SDS011;231;48.120;11.576;2022-12-05T09:12:37;14.33;;;13.17;;
489;SDS011;231;48.120;11.576;2022-12-05T09:15:05;19.50;;;14.77;;
489;SDS011;231;48.120;11.576;2022-12-05T09:17:35;15.00;;;12.93;;
489;SDS011;231;48.120;11.576;2022-12-05T09:20:02;14.43;;;13.73;;
489;SDS011;231;48.120;11.576;2022-12-05T09:22:30;15.97;;;12.63;;
489;SDS011;231;48.120;11.576;2022-12-05T09:25:05;12.73;;;12.07;;
489;SDS011;231;48.120;11.576;2022-12-05T09:27:33;16.30;;;14.67;;
489;SDS011;231;48.120;11.576;2022-12-05T09:30:08;14.40;;;12.03;;
489;SDS011;231;48.120;11.576;2022-12-05T09:32:37;13.20;;;12.10;;
489;SDS011;231;48.120;11.576;2022-12-05T09:35:03;16.40;;;12.97;;
489;SDS011;231;48.120;11.576;2022-12-05T09:37:31;14.07;;;13.40;;
489;SDS011;231;48.120;11.576;2022-12-05T09:39:57;14.70;;;13.73;;
489;SDS011;231;48.120;11.576;2022-12-05T09:42:35;17.70;;;15.20;;
489;SDS011;231;48.120;11.576;2022-12-05T09:45:14;13.20;;;12.03;;
489;SDS011;231;48.120;11.576;2022-12-05T09:47:50;15.07;;;13.57;;
489;SDS011;231;48.120;11.576;2022-12-05T09:50:22;13.70;;;12.77;;
489;SDS011;231;48.120;11.576;2022-12-05T09:53:00;12.70;;;11.20;;
489;SDS011;231;48.120;11.576;2022-12-05T09:55:44;13.17;;;11.63;;
489;SDS011;231;48.120;11.576;2022-12-05T10:01:03;12.97;;;12.00;;
489;SDS011;231;48.120;11.576;2022-12-05T10:03:44;24.23;;;20.33;;
489;SDS011;231;48.120;11.576;2022-12-05T10:06:17;19.80;;;17.43;;
489;SDS011;231;48.120;11.576;2022-12-05T10:09:00;14.40;;;13.70;;
489;SDS011;231;48.120;11.576;2022-12-05T10:11:53;15.03;;;14.23;;
489;SDS011;231;48.120;11.576;2022-12-05T10:14:27;15.30;;;14.50;;
489;SDS011;231;48.120;11.576;2022-12-05T10:17:02;15.63;;;14.33;;
489;SDS011;231;48.120;11.576;2022-12-05T10:19:38;16.53;;;13.40;;
489;SDS011;231;48.120;11.576;2022-12-05T10:22:10;14.70;;;12.23;;
489;SDS011;231;48.120;11.576;2022-12-05T10:24:41;13.23;;;12.10;;
489;SDS011;231;48.120;11.576;2022-12-05T10:27:10;13.10;;;12.40;;
489;SDS011;231;48.120;11.576;2022-12-05T10:29:51;11.50;;;10.90;;
489;SDS011;231;48.120;11.576;2022-12-05T10:32:24;13.20;;;12.50;;
489;SDS011;231;48.120;11.576;2022-12-05T10:34:59;13.67;;;12.97;;
489;SDS011;231;48.120;11.576;2022-12-05T10:37:39;14.07;;;11.83;;
489;SDS011;231;48.120;11.576;2022-12-05T10:40:10;14.17;;;12.77;;
489;SDS011;231;48.120;11.576;2022-12-05T10:42:38;13.70;;;13.00;;
489;SDS011;231;48.120;11.576;2022-12-05T10:45:06;13.90;;;13.20;;
489;SDS011;231;48.120;11.576;2022-12-05T10:47:38;13.00;;;12.03;;
489;SDS011;231;48.120;11.576;2022-12-05T10:50:13;13.10;;;11.67;;
489;SDS011;231;48.120;11.576;2022-12-05T10:52:47;14.30;;;13.47;;
489;SDS011;231;48.120;11.576;2022-12-05T10:55:15;15.40;;;13.83;;
489;SDS011;231;48.120;11.576;2022-12-05T10:57:44;15.03;;;13.30;;
489;SDS011;231;48.120;11.576;2022-12-05T11:00:16;12.53;;;11.77;;
489;SDS011;231;48.120;11.576;2022-12-05T11:02:47;13.77;;;13.07;;
489;SDS011;231;48.120;11.576;2022-12-05T11:05:19;17.13;;;13.93;;
489;SDS011;231;48.120;11.576;2022-12-05T11:07:53;18.00;;;13.97;;
489;SDS011;231;48.120;11.576;2022-12-05T11:10:23;20.40;;;14.93;;
489;SDS011;231;48.120;11.576;2022-12-05T11:12:51;14.00;;;13.30;;
489;SDS011;231;48.120;11.576;2022-12-05T11:15:21;15.33;;;14.40;;
489;SDS011;231;48.120;11.576;2022-12-05T11:17:50;13.90;;;13.20;;
489;SDS011;231;48.120;11.576;2022-12-05T11:23:21;14.30;;;13.60;;
489;SDS011;231;48.120;11.576;2022-12-05T11:25:50;15.87;;;14.87;;
489;SDS011;231;48.120;11.576;2022-12-05T11:28:27;14.13;;;13.43;;
489;SDS011;231;48.120;11.576;2022-12-05T11:31:00;16.70;;;13.90;;
489;SDS011;231;48.120;11.576;2022-12-05T11:33:29;16.07;;;12.60;;
489;SDS011;231;48.120;11.576;2022-12-05T11:36:00;14.77;;;14.00;;
489;SDS011;231;48.120;11.576;2022-12-05T11:38:30;13.20;;;12.50;;
489;SDS011;231;48.120;11.576;2022-12-05T11:41:02;12.80;;;12.13;;
489;SDS011;231;48.120;11.576;2022-12-05T11:43:50;15.80;;;13.93;;
489;SDS011;231;48.120;11.576;2022-12-05T11:46:42;12.80;;;12.10;;
489;SDS011;231;48.120;11.576;2022-12-05T11:49:27;12.30;;;11.63;;
489;SDS011;231;48.120;11.576;2022-12-05T11:52:13;13.90;;;11.30;;
489;SDS011;231;48.120;11.576;2022-12-05T11:54:53;10.90;;;10.30;;
489;SDS011;231;48.120;11.576;2022-12-05T11:57:27;13.27;;;12.27;;
489;SDS011;231;48.120;11.576;2022-12-05T12:00:18;12.90;;;12.20;;
489;SDS011;231;48.120;11.576;2022-12-05T12:03:18;14.43;;;13.73;;
489;SDS011;231;48.120;11.576;2022-12-05T12:06:08;12.17;;;11.57;;
489;SDS011;231;48.120;11.576;2022-12-05T12:08:53;12.00;;;11.40;;
489;SDS011;231;48.120;11.576;2022-12-05T12:11:33;30.03;;;23.20;;
489;SDS011;231;48.120;11.576;2022-12-05T12:14:09;14.90;;;14.10;;
489;SDS011;231;48.120;11.576;2022-12-05T12:16:45;11.60;;;10.63;;
489;SDS011;231;48.120;11.576;2022-12-05T12:19:35;12.03;;;11.43;;
489;SDS011;231;48.120;11.576;2022-12-05T12:22:14;10.90;;;10.27;;
489;SDS011;231;48.120;11.576;2022-12-05T12:24:57;10.47;;;9.93;;
489;SDS011;231;48.120;11.576;2022-12-05T12:27:41;13.67;;;11.60;;
489;SDS011;231;48.120;11.576;2022-12-05T12:30:19;11.37;;;10.17;;
489;SDS011;231;48.120;11.576;2022-12-05T12:32:51;11.33;;;10.73;;
489;SDS011;231;48.120;11.576;2022-12-05T12:35:27;13.30;;;11.03;;
489;SDS011;231;48.120;11.576;2022-12-05T12:38:08;9.90;;;8.60;;
489;SDS011;231;48.120;11.576;2022-12-05T12:40:48;9.00;;;8.50;;
489;SDS011;231;48.120;11.576;2022-12-05T12:43:31;8.63;;;8.13;;
489;SDS011;231;48.120;11.576;2022-12-05T12:46:12;7.73;;;7.33;;
489;SDS011;231;48.120;11.576;2022-12-05T12:48:51;11.00;;;10.10;;
489;SDS011;231;48.120;11.576;2022-12-05T12:51:33;8.70;;;8.20;;
489;SDS011;231;48.120;11.576;2022-12-05T12:54:06;12.33;;;11.63;;
489;SDS011;231;48.120;11.576;2022-12-05T12:56:54;17.30;;;14.43;;
489;SDS011;231;48.120;11.576;2022-12-05T13:02:28;11.67;;;9.20;;
489;SDS011;231;48.120;11.576;2022-12-05T13:05:03;16.40;;;13.53;;
489;SDS011;231;48.120;11.576;2022-12-05T13:07:34;16.17;;;11.60;;
489;SDS011;231;48.120;11.576;2022-12-05T13:10:05;13.10;;;11.57;;
489;SDS011;231;48.120;11.576;2022-12-05T13:12:44;9.50;;;8.20;;
489;SDS011;231;48.120;11.576;2022-12-05T13:15:12;7.73;;;7.40;;
489;SDS011;231;48.120;11.576;2022-12-05T13:17:44;7.50;;;7.10;;
489;SDS011;231;48.120;11.576;2022-12-05T13:20:15;6.73;;;5.40;;
489;SDS011;231;48.120;11.576;2022-12-05T13:22:45;6.40;;;5.53;;
489;SDS011;231;48.120;11.576;2022-12-05T13:25:14;5.50;;;5.20;;
489;SDS011;231;48.120;11.576;2022-12-05T13:27:52;4.47;;;4.17;;
489;SDS011;231;48.120;11.576;2022-12-05T13:30:29;5.10;;;4.73;;
489;SDS011;231;48.120;11.576;2022-12-05T13:32:58;6.00;;;5.10;;
489;SDS011;231;48.120;11.576;2022-12-05T13:35:29;5.67;;;4.93;;
489;SDS011;231;48.120;11.576;2022-12-05T13:38:19;5.17;;;4.87;;
489;SDS011;231;48.120;11.576;2022-12-05T13:41:04;4.37;;;4.03;;
489;SDS011;231;48.120;11.576;2022-12-05T13:43:50;6.00;;;4.83;;
489;SDS011;231;48.120;11.576;2022-12-05T13:46:22;4.63;;;4.00;;
489;SDS011;231;48.120;11.576;2022-12-05T13:48:57;4.30;;;4.03;;
489;SDS011;231;48.120;11.576;2022-12-05T13:51:30;3.47;;;3.27;;
489;SDS011;231;48.120;11.576;2022-12-05T13:54:02;3.90;;;3.67;;
489;SDS011;231;48.120;11.576;2022-12-05T13:56:45;3.60;;;3.40;;
489;SDS011;231;48.120;11.576;2022-12-05T14:11:09;4.03;;;3.83;;
489;SDS011;231;48.120;11.576;2022-12-05T14:13:38;4.80;;;4.50;;
489;SDS011;231;48.120;11.576;2022-12-05T14:19:12;4.40;;;4.00;;
489;SDS011;231;48.120;11.576;2022-12-05T14:22:10;5.67;;;4.60;;
489;SDS011;231;48.120;11.576;2022-12-05T14:24:45;5.60;;;5.30;;
489;SDS011;231;48.120;11.576;2022-12-05T14:27:22;4.43;;;4.10;;
489;SDS011;231;48.120;11.576;2022-12-05T14:30:01;5.57;;;5.27;;
489;SDS011;231;48.120;11.576;2022-12-05T14:32:31;4.97;;;4.70;;
489;SDS011;231;48.120;11.576;2022-12-05T14:35:03;5.47;;;4.40;;
489;SDS011;231;48.120;11.576;2022-12-05T14:37:37;4.60;;;4.30;;
489;SDS011;231;48.120;11.576;2022-12-05T14:40:15;6.20;;;4.43;;
489;SDS011;231;48.120;11.576;2022-12-05T14:42:49;5.67;;;5.37;;
489;SDS011;231;48.120;11.576;2022-12-05T14:45:23;5.20;;;4.90;;
489;SDS011;231;48.120;11.576;2022-12-05T14:48:02;5.50;;;4.73;;
489;SDS011;231;48.120;11.576;2022-12-05T14:50:37;5.47;;;5.17;;
489;SDS011;231;48.120;11.576;2022-12-05T14:53:23;4.77;;;4.47;;
489;SDS011;231;48.120;11.576;2022-12-05T14:56:04;4.80;;;4.50;;
489;SDS011;231;48.120;11.576;2022-12-05T14:58:48;5.03;;;4.73;;
489;SDS011;231;48.120;11.576;2022-12-05T15:01:26;4.97;;;4.67;;
489;SDS011;231;48.120;11.576;2022-12-05T15:04:04;5.83;;;5.53;;
489;SDS011;231;48.120;11.576;2022-12-05T15:06:41;5.53;;;5.23;;
489;SDS011;231;48.120;11.576;2022-12-05T15:09:25;5.53;;;5.23;;
489;SDS011;231;48.120;11.576;2022-12-05T15:12:10;5.50;;;5.20;;
489;SDS011;231;48.120;11.576;2022-12-05T15:14:43;5.70;;;5.40;;
489;SDS011;231;48.120;11.576;2022-12-05T15:17:14;4.87;;;4.57;;
489;SDS011;231;48.120;11.576;2022-12-05T15:19:49;6.00;;;5.07;;
489;SDS011;231;48.120;11.576;2022-12-05T15:22:29;5.03;;;4.73;;
489;SDS011;231;48.120;11.576;2022-12-05T15:25:12;6.10;;;5.80;;
489;SDS011;231;48.120;11.576;2022-12-05T15:27:51;5.60;;;5.30;;
489;SDS011;231;48.120;11.576;2022-12-05T15:30:19;6.10;;;5.47;;
489;SDS011;231;48.120;11.576;2022-12-05T15:32:46;5.07;;;4.77;;
489;SDS011;231;48.120;11.576;2022-12-05T15:35:13;5.73;;;5.43;;
489;SDS011;231;48.120;11.576;2022-12-05T15:37:45;6.57;;;5.13;;
489;SDS011;231;48.120;11.576;2022-12-05T15:40:16;6.30;;;5.57;;
489;SDS011;231;48.120;11.576;2022-12-05T15:42:46;5.10;;;4.80;;
489;SDS011;231;48.120;11.576;2022-12-05T15:45:18;4.50;;;4.20;;
489;SDS011;231;48.120;11.576;2022-12-05T15:47:48;3.90;;;3.70;;
489;SDS011;231;48.120;11.576;2022-12-05T15:50:20;4.00;;;3.83;;
489;SDS011;231;48.120;11.576;2022-12-05T15:52:54;6.37;;;4.97;;
489;SDS011;231;48.120;11.576;2022-12-05T15:55:24;4.10;;;3.90;;
489;SDS011;231;48.120;11.576;2022-12-05T15:57:56;4.73;;;4.43;;
489;SDS011;231;48.120;11.576;2022-12-05T16:00:29;5.17;;;4.87;;
489;SDS011;231;48.120;11.576;2022-12-05T16:03:01;4.73;;;4.47;;
489;SDS011;231;48.120;11.576;2022-12-05T16:05:32;5.77;;;5.47;;